Tiempo atmosférico en la estación meteorológica de Colunga, Asturias (35 m.)



Fecha
DESCASC
Temp. máxima en grados centígrados (hora)
DESCASC
Temp. mínima en grados centígrados (hora)
DESCASC
Temp. media en grados centígrados
DESCASC
Racha de viento máxima en m/sg (hora)
DESCASC
Velocidad máxima media en intervalos de 10 minutos(hora)
DESCASC
Precipitaciones diarias en mm
DESCASC
Precipitaciones de 00:00 a 06:00 en mm
DESCASC
Precipitaciones de 06:00 a 12:00 en mm
DESCASC
Precipitaciones de 12:00 a 18:00 en mm
DESCASC
Precipitaciones de 18:00 a 24:00 en mm
DESCASC
17-09-2020 25.3 (18:10) 19.2 (08:50) 22.3 5.28 (23:59) 3.33 (13:30) 2 0.2 1.8 0 0
16-09-2020 22.5 (12:30) 19 (02:10) 20.8 5.28 (15:40) 2.78 (15:40) 0 0 0 0 0
15-09-2020 23.4 (16:30) 16.4 (08:40) 19.9 5 (06:00) 2.78 (06:00) 0 0 0 0 0
14-09-2020 26.3 (13:00) 15.5 (00:00) 20.9 5.83 (20:10) 3.33 (20:00) 1 0 0 0.2 0.8
13-09-2020 23.2 (17:50) 14.6 (00:00) 18.9 5 (01:30) 2.78 (01:30) 0 0 0 0 0
12-09-2020 22.8 (15:30) 17.8 (00:00) 20.3 6.67 (13:10) 3.89 (13:50) 0 0 0 0 0
11-09-2020 23.5 (16:30) 15 (00:00) 19.3 5.83 (11:30) 3.33 (11:30) 0 0 0 0 0
10-09-2020 22.6 (14:10) 15.2 (00:00) 18.9 4.17 (04:10) 2.78 (08:20) 0 0 0 0 0
09-09-2020 22.8 (16:40) 13.5 (00:00) 18.1 5 (08:40) 3.33 (08:00) 0 0 0 0 0
08-09-2020 22 (14:20) 16.6 (00:00) 19.3 9.17 (13:20) 5.28 (15:30) 0 0 0 0 0
07-09-2020 22.1 (15:50) 12.7 (07:50) 17.4 7.78 (18:00) 4.72 (19:00) 0.2 0.2 0 0 0
06-09-2020 21.9 (17:20) 15.5 (00:00) 18.7 7.22 (22:50) 3.61 (02:30) 2 1.2 0.8 0 0
05-09-2020 20.7 (02:20) 17.3 (00:00) 19 9.72 (22:00) 5.28 (22:00) 20.4 0.4 2.8 3.6 13.6
04-09-2020 23.8 (16:00) 15.6 (00:00) 19.7 4.72 (15:00) 2.78 (20:40) 0 0 0 0 0
03-09-2020 23.6 (16:30) 14.2 (00:00) 18.9 6.11 (17:20) 3.33 (17:40) 0 0 0 0 0
02-09-2020 22.5 (16:20) 15 (00:00) 18.8 7.5 (20:10) 4.17 (20:10) 0 0 0 0 0
01-09-2020 22.8 (16:30) 14.5 (00:00) 18.6 5.28 (21:00) 3.06 (02:50) 0 0 0 0 0
31-08-2020 21.9 (15:30) 10.3 (00:00) 16.1 6.11 (15:30) 3.61 (15:10) 0 0 0 0 0
30-08-2020 19.5 (15:50) 12.5 (00:00) 16 6.11 (03:10) 3.06 (03:10) 27 16.2 10.6 0.2 0
29-08-2020 19.7 (14:10) 13.5 (00:00) 16.6 11.94 (12:40) 3.89 (07:50) 47.4 5.4 16.2 9.6 16.2
28-08-2020 22.9 (12:30) 15.4 (00:00) 19.1 10.28 (12:20) 4.72 (14:50) 1.4 1 0 0 0.4
27-08-2020 25.1 (14:10) 19 (00:00) 22.1 6.39 (13:00) 3.33 (15:30) 0 0 0 0 0
26-08-2020 24.6 (14:40) 20.7 (00:00) 22.7 7.22 (16:00) 4.17 (15:50) 0 0 0 0 0
25-08-2020 25.9 (16:40) 16.1 (00:00) 21 5.28 (12:50) 3.33 (12:40) 0 0 0 0 0
24-08-2020 23.9 (15:40) 16.9 (00:00) 20.4 9.17 (15:00) 5.28 (14:50) 0.2 0.2 0 0 0
23-08-2020 23.8 (16:00) 15.1 (00:00) 19.4 6.39 (15:30) 3.89 (15:30) 0 0 0 0 0
22-08-2020 23 (15:20) 17.4 (00:00) 20.2 6.39 (13:30) 4.17 (13:20) 0 0 0 0 0
21-08-2020 -- (--) -- (--) -- -- (--) -- (--) -- -- -- -- 0

Gráficas

Temp. máximas Temp. mínimas Temp. medias Precipitaciones Rachas de viento máximas Velocidades máximas media en intervalos de 10 minutos

Datos horarios

Fecha y hora oficial Temperatura (ºC) Velocidad del viento (km/h) Dirección del viento Racha (km/h) Dirección de racha Precipitación (mm) Presión (hPa) Tendencia (hPa) Humedad (%)
2020-09-19 23:00:00 18.6 6 Sudoeste 17 Sudoeste 0 -- -- 88
2020-09-19 22:00:00 18.7 5 Sudoeste 9 Sudoeste 0 -- -- 89
2020-09-19 21:00:00 18.7 6 Sudoeste 13 Sudoeste 0 -- -- 86
2020-09-19 20:00:00 20 6 Sudoeste 17 Noroeste 0 -- -- 76
2020-09-19 19:00:00 20.6 7 Noroeste 14 Oeste 0 -- -- 79
2020-09-19 18:00:00 21 8 Oeste 27 Sudoeste 0 -- -- 75
2020-09-19 17:00:00 21.5 13 Oeste 32 Sudoeste 0 -- -- 74
2020-09-19 16:00:00 20.7 18 Sudoeste 32 Sudoeste 0 -- -- 78
2020-09-19 15:00:00 18.8 14 Sudoeste 24 Sudoeste 0 -- -- 91
2020-09-19 14:00:00 18.9 11 Oeste 22 Sudoeste 0.4 -- -- 95
2020-09-19 13:00:00 18.9 6 Sudoeste 12 Oeste 1.4 -- -- 94
2020-09-19 12:00:00 19.5 7 Noroeste 19 Sudoeste 0 -- -- 87
2020-09-19 11:00:00 20.1 8 Oeste 19 Sudoeste 0 -- -- 80
2020-09-19 10:00:00 19.3 12 Oeste 22 Oeste 0 -- -- 85
2020-09-19 09:00:00 17.8 9 Oeste 21 Oeste 0.2 -- -- 97
2020-09-19 08:00:00 17.1 10 Oeste 14 Oeste 0.2 -- -- 97
2020-09-19 07:00:00 17.3 5 Sudoeste 12 Sudoeste 0.6 -- -- 96
2020-09-19 06:00:00 17.2 6 Sudoeste 10 Sudoeste 0 -- -- 95
2020-09-19 05:00:00 17.5 6 Oeste 12 Oeste 0 -- -- 94
2020-09-19 04:00:00 17.2 6 Sudoeste 12 Sudoeste 0 -- -- 95
2020-09-19 03:00:00 17.9 9 Oeste 18 Sudoeste 0 -- -- 94
2020-09-19 02:00:00 17.3 4 Sudoeste 13 Oeste 0 -- -- 95
2020-09-19 01:00:00 17.5 8 Oeste 17 Oeste 0 -- -- 96
2020-09-19 00:00:00 16.6 11 Sudoeste 15 Sudoeste 0 -- -- 97
2020-09-18 23:00:00 17 7 Sudoeste 9 Sudoeste 0 -- -- 97
2020-09-18 22:00:00 17 2 Oeste 5 Sudoeste 0 -- -- 94
2020-09-18 21:00:00 18.2 3 Nordeste 6 Nordeste 0 -- -- 92
2020-09-18 20:00:00 20.2 4 Norte 13 Este 0 -- -- 84
2020-09-18 19:00:00 21.8 6 Nordeste 10 Nordeste 0 -- -- 80
2020-09-18 18:00:00 23.4 7 Este 13 Este 0 -- -- 71
2020-09-18 17:00:00 22.9 6 Nordeste 9 Este 0 -- -- 77
2020-09-18 16:00:00 21.6 6 Nordeste 10 Este 0 -- -- 83
2020-09-18 15:00:00 22.3 6 Nordeste 11 Este 0 -- -- 83
2020-09-18 14:00:00 21.9 7 Nordeste 12 Nordeste 0 -- -- 85
2020-09-18 13:00:00 21.3 8 Nordeste 14 Norte 0 -- -- 88
2020-09-18 12:00:00 20.1 4 Norte 12 Nordeste 0 -- -- 96
2020-09-18 11:00:00 19.4 4 Sudeste 12 Norte 0.2 -- -- 100
2020-09-18 10:00:00 17.8 4 Oeste 15 Sudoeste 5 -- -- 100
2020-09-18 09:00:00 18 7 Sudoeste 12 Sudoeste 0.6 -- -- 100
2020-09-18 08:00:00 18 5 Este 19 Nordeste 0 -- -- 100
2020-09-18 07:00:00 17.6 0 Calma 6 Este 0 -- -- 99
2020-09-18 06:00:00 17.7 3 Sudoeste 9 Nordeste 0 -- -- 98
2020-09-18 05:00:00 18.2 0 Calma 20 Oeste 0 -- -- 96
2020-09-18 04:00:00 18.6 5 Oeste 20 Noroeste 0 -- -- 94
2020-09-18 03:00:00 19.5 10 Oeste 24 Sudoeste 0.2 -- -- 89
2020-09-18 02:00:00 20.5 10 Oeste 32 Oeste 0 -- -- 85
2020-09-18 01:00:00 21.6 9 Oeste 26 Norte 0 -- -- 86
2020-09-18 00:00:00 21 10 Oeste 19 Sudoeste 0 -- -- 97
2020-09-17 23:00:00 20 4 Sudoeste 12 Oeste 0 -- -- 97
2020-09-17 22:00:00 19.4 3 Sudoeste 13 Sudoeste 0 -- -- 97
2020-09-17 21:00:00 19.9 3 Oeste 8 Sudoeste 0 -- -- 93
2020-09-17 20:00:00 21.2 0 Calma 8 Nordeste 0 -- -- 92
2020-09-17 19:00:00 22.4 0 Calma 13 Nordeste 0 -- -- 87
2020-09-17 18:00:00 24.9 3 Sudoeste 14 Nordeste 0 -- -- 84
2020-09-17 17:00:00 23.2 3 Nordeste 10 Norte 0 -- -- 87
2020-09-17 16:00:00 22.7 3 Este 9 Nordeste 0 -- -- 89
2020-09-17 15:00:00 22.8 3 Norte 6 Nordeste 0 -- -- 92
2020-09-17 14:00:00 21.8 6 Norte 17 Norte 0 -- -- 95
2020-09-17 13:00:00 23.6 7 Oeste 11 Sudoeste 0 -- -- 94
2020-09-17 12:00:00 21.1 7 Norte 10 Oeste 0 -- -- 100
2020-09-17 11:00:00 20.4 5 Oeste 13 Sudoeste 0 -- -- 100
2020-09-17 10:00:00 19.9 4 Sudoeste 9 Oeste 0 -- -- 100
2020-09-17 09:00:00 19.2 3 Oeste 9 Norte 0 -- -- 100
2020-09-17 08:00:00 19.7 5 Noroeste 8 Sudoeste 0 -- -- 100
2020-09-17 07:00:00 19.8 2 Oeste 14 Norte 1.8 -- -- 100
2020-09-17 06:00:00 20 8 Nordeste 17 Norte 0.2 -- -- 100
2020-09-17 05:00:00 19.7 5 Nordeste 10 Norte 0 -- -- 100
2020-09-17 04:00:00 19.7 0 Calma 7 Sudoeste 0 -- -- 100
2020-09-17 03:00:00 19.3 0 Calma 8 Nordeste 0 -- -- 100
2020-09-17 02:00:00 19.8 4 Norte 10 Nordeste 0 -- -- 100
2020-09-17 01:00:00 20.1 7 Norte 10 Nordeste 0 -- -- 100
2020-09-17 00:00:00 20.4 6 Nordeste 10 Norte 0 -- -- 100
2020-09-16 23:00:00 20.5 5 Nordeste 9 Nordeste 0 -- -- 99
2020-09-16 22:00:00 20.4 0 Calma 5 Nordeste 0 -- -- 98
2020-09-16 21:00:00 20.5 4 Nordeste 7 Nordeste 0 -- -- 97
2020-09-16 20:00:00 20.6 5 Nordeste 11 Nordeste 0 -- -- 96
2020-09-16 19:00:00 21.1 4 Nordeste 10 Este 0 -- -- 93
2020-09-16 18:00:00 21.3 5 Nordeste 16 Este 0 -- -- 92
2020-09-16 17:00:00 21.9 8 Nordeste 19 Nordeste 0 -- -- 92
2020-09-16 16:00:00 22.4 7 Nordeste 19 Este 0 -- -- 88
2020-09-16 15:00:00 22 8 Este 15 Este 0 -- -- 90
2020-09-16 14:00:00 22.1 5 Nordeste 9 Nordeste 0 -- -- 87
2020-09-16 13:00:00 22.1 4 Nordeste 9 Nordeste 0 -- -- 87
2020-09-16 12:00:00 22.2 6 Nordeste 9 Nordeste 0 -- -- 85
2020-09-16 11:00:00 21.6 6 Nordeste 9 Nordeste 0 -- -- 88
2020-09-16 10:00:00 20.4 4 Oeste 8 Sudoeste 0 -- -- 95
2020-09-16 09:00:00 19.5 0 Calma 5 Sur 0 -- -- 97
2020-09-16 08:00:00 19.4 0 Calma 5 Sudoeste 0 -- -- 97
2020-09-16 07:00:00 19.5 2 Sudoeste 9 Oeste 0 -- -- 96
2020-09-16 06:00:00 19.5 5 Oeste 13 Oeste 0 -- -- 98
2020-09-16 05:00:00 19.2 6 Oeste 13 Oeste 0 -- -- 100
2020-09-16 04:00:00 19.1 5 Sudoeste 8 Oeste 0 -- -- 100
2020-09-16 03:00:00 19.2 2 Oeste 4 Nordeste 0 -- -- 100
2020-09-16 02:00:00 19.2 0 Calma 4 Este 0 -- -- 99
2020-09-16 01:00:00 19.4 2 Norte 5 Norte 0 -- -- 99
2020-09-16 00:00:00 19.5 5 Oeste 8 Sudoeste 0 -- -- 99
2020-09-15 23:00:00 19.5 2 Oeste 4 Sudoeste 0 -- -- 98
2020-09-15 22:00:00 19.5 2 Nordeste 6 Nordeste 0 -- -- 96
2020-09-15 21:00:00 20.7 3 Nordeste 6 Nordeste 0 -- -- 95
2020-09-15 20:00:00 21.1 3 Nordeste 6 Nordeste 0 -- -- 92
2020-09-15 19:00:00 21.9 4 Norte 7 Este 0 -- -- 89
2020-09-15 18:00:00 23.2 3 Nordeste 8 Nordeste 0 -- -- 87
2020-09-15 17:00:00 23.2 6 Nordeste 12 Nordeste 0 -- -- 86
2020-09-15 16:00:00 23.2 6 Norte 13 Nordeste 0 -- -- 86
2020-09-15 15:00:00 23.1 8 Nordeste 11 Norte 0 -- -- 84
2020-09-15 14:00:00 23.1 9 Nordeste 13 Nordeste 0 -- -- 82
2020-09-15 13:00:00 23 7 Nordeste 12 Nordeste 0 -- -- 80
2020-09-15 12:00:00 22.9 4 Nordeste 9 Este 0 -- -- 82
2020-09-15 11:00:00 21 4 Este 9 Sudoeste 0 -- -- 95
2020-09-15 10:00:00 18.6 5 Sudoeste 9 Sudoeste 0 -- -- 98
2020-09-15 09:00:00 16.9 6 Oeste 12 Sudoeste 0 -- -- 99
2020-09-15 08:00:00 17 5 Sudoeste 14 Oeste 0 -- -- 98
2020-09-15 07:00:00 17.4 8 Oeste 15 Oeste 0 -- -- 98
2020-09-15 06:00:00 17.7 10 Oeste 18 Oeste 0 -- -- 99
2020-09-15 05:00:00 18 8 Sudoeste 13 Oeste 0 -- -- 99
2020-09-15 04:00:00 18.1 0 Calma 9 Sur 0 -- -- 98
2020-09-15 03:00:00 18.5 6 Noroeste 15 Sudoeste 0 -- -- 99
2020-09-15 02:00:00 18.3 8 Oeste 13 Sudoeste 0 -- -- 99
2020-09-15 01:00:00 18.1 6 Oeste 10 Sudoeste 0 -- -- 98
2020-09-15 00:00:00 18.5 2 Oeste 12 Nordeste 0.8 -- -- 96
2020-09-14 23:00:00 19.5 5 Este 15 Este 0 -- -- 93
2020-09-14 22:00:00 19.7 6 Este 16 Este 0 -- -- 91
2020-09-14 21:00:00 19.8 7 Sudoeste 21 Oeste 0 -- -- 88
2020-09-14 20:00:00 20.9 12 Oeste 20 Oeste 0 -- -- 80
2020-09-14 19:00:00 22.4 4 Norte 9 Norte 0 -- -- 73
2020-09-14 18:00:00 22.4 4 Norte 10 Nordeste 0 -- -- 76
2020-09-14 17:00:00 22.5 5 Este 9 Este 0 -- -- 79
2020-09-14 16:00:00 20.7 2 Nordeste 12 Este 0.2 -- -- 88
2020-09-14 15:00:00 20.9 5 Nordeste 10 Nordeste 0 -- -- 80
2020-09-14 14:00:00 22.4 5 Sudeste 13 Oeste 0 -- -- 75
2020-09-14 13:00:00 26.3 7 Noroeste 15 Noroeste 0 -- -- 57
2020-09-14 12:00:00 24.7 6 Nordeste 15 Noroeste 0 -- -- 70
2020-09-14 11:00:00 24.4 5 Sudoeste 8 Sudoeste 0 -- -- 69
2020-09-14 10:00:00 20.7 2 Sudeste 4 Este 0 -- -- 93
2020-09-14 09:00:00 17.6 2 Sudoeste 9 Oeste 0 -- -- 97
2020-09-14 08:00:00 16.6 9 Oeste 18 Sudoeste 0 -- -- 96
2020-09-14 07:00:00 15.9 3 Oeste 12 Sudoeste 0 -- -- 98
2020-09-14 06:00:00 15.9 4 Sudoeste 13 Sudoeste 0 -- -- 98
2020-09-14 05:00:00 16.1 3 Sudoeste 10 Sudoeste 0 -- -- 97
2020-09-14 04:00:00 15.7 4 Oeste 7 Sudoeste 0 -- -- 99
2020-09-14 03:00:00 16 0 Calma 7 Sudoeste 0 -- -- 99
2020-09-14 02:00:00 15.8 3 Sur 10 Sudoeste 0 -- -- 99
2020-09-14 01:00:00 16.2 0 Calma 8 Sudoeste 0 -- -- 98
2020-09-14 00:00:00 16.8 0 Calma 10 Sudoeste 0 -- -- 98
2020-09-13 23:00:00 17.9 4 Oeste 10 Oeste 0 -- -- 97
2020-09-13 22:00:00 17.5 0 Calma 8 Este 0 -- -- 95
2020-09-13 21:00:00 19 0 Calma 8 Sudoeste 0 -- -- 91
2020-09-13 20:00:00 20.7 2 Oeste 11 Nordeste 0 -- -- 86
2020-09-13 19:00:00 21.8 3 Norte 13 Nordeste 0 -- -- 77
2020-09-13 18:00:00 23 6 Nordeste 16 Nordeste 0 -- -- 79
2020-09-13 17:00:00 22.9 6 Nordeste 12 Este 0 -- -- 77
2020-09-13 16:00:00 22.8 6 Nordeste 12 Nordeste 0 -- -- 78
2020-09-13 15:00:00 22.6 5 Nordeste 12 Este 0 -- -- 78
2020-09-13 14:00:00 22.2 7 Nordeste 12 Nordeste 0 -- -- 80
2020-09-13 13:00:00 21.5 6 Nordeste 13 Nordeste 0 -- -- 86
2020-09-13 12:00:00 20.9 6 Nordeste 12 Nordeste 0 -- -- 95
2020-09-13 11:00:00 19.4 4 Nordeste 8 Nordeste 0 -- -- 100
2020-09-13 10:00:00 17.8 0 Calma 10 Sudoeste 0 -- -- 100
2020-09-13 09:00:00 16.5 5 Sudoeste 11 Oeste 0 -- -- 100
2020-09-13 08:00:00 16.3 7 Sudoeste 13 Oeste 0 -- -- 100
2020-09-13 07:00:00 15 4 Oeste 8 Sudoeste 0 -- -- 100
2020-09-13 06:00:00 15.1 0 Calma 7 Oeste 0 -- -- 100
2020-09-13 05:00:00 17.5 5 Sudoeste 10 Sudoeste 0 -- -- 100
2020-09-13 04:00:00 17 3 Oeste 5 Sudoeste 0 -- -- 100
2020-09-13 03:00:00 17.5 3 Norte 6 Sudoeste 0 -- -- 99
2020-09-13 02:00:00 18.7 3 Nordeste 18 Nordeste 0 -- -- 99
2020-09-13 01:00:00 18.7 4 Este 14 Este 0 -- -- 99
2020-09-13 00:00:00 18.2 3 Norte 11 Nordeste 0 -- -- 99
2020-09-12 23:00:00 18.4 3 Nordeste 10 Nordeste 0 -- -- 98
2020-09-12 22:00:00 18.5 4 Nordeste 10 Nordeste 0 -- -- 97
2020-09-12 21:00:00 18.7 3 Norte 11 Este 0 -- -- 96
2020-09-12 20:00:00 19.6 2 Nordeste 19 Nordeste 0 -- -- 95
2020-09-12 19:00:00 20 9 Este 20 Este 0 -- -- 94
2020-09-12 18:00:00 20.8 9 Nordeste 19 Nordeste 0 -- -- 93
2020-09-12 17:00:00 21.1 8 Nordeste 17 Este 0 -- -- 91
2020-09-12 16:00:00 22.3 7 Nordeste 19 Nordeste 0 -- -- 86
2020-09-12 15:00:00 22.3 8 Nordeste 18 Este 0 -- -- 85
2020-09-12 14:00:00 22.5 10 Nordeste 24 Este 0 -- -- 85
2020-09-12 13:00:00 21.8 13 Nordeste 21 Nordeste 0 -- -- 84
2020-09-12 12:00:00 21.2 8 Nordeste 19 Nordeste 0 -- -- 90
2020-09-12 11:00:00 20 6 Nordeste 15 Este 0 -- -- 97
2020-09-12 10:00:00 19.2 6 Nordeste 12 Nordeste 0 -- -- 99
2020-09-12 09:00:00 18.6 0 Calma 5 Sudoeste 0 -- -- 100
2020-09-12 08:00:00 18 0 Calma 4 Noroeste 0 -- -- 99
2020-09-12 07:00:00 18.5 0 Calma 5 Sudoeste 0 -- -- 98
2020-09-12 06:00:00 18.7 3 Oeste 5 Oeste 0 -- -- 98
2020-09-12 05:00:00 19.6 0 Calma 5 Nordeste 0 -- -- 98
2020-09-12 04:00:00 19.7 4 Norte 8 Nordeste 0 -- -- 97
2020-09-12 03:00:00 19.9 3 Nordeste 6 Nordeste 0 -- -- 96
2020-09-12 02:00:00 19.6 4 Norte 9 Norte 0 -- -- 96
2020-09-12 01:00:00 19.8 5 Nordeste 17 Sudeste 0 -- -- 95
2020-09-12 00:00:00 19.3 5 Este 13 Nordeste 0 -- -- 97
2020-09-11 23:00:00 18.6 5 Nordeste 12 Nordeste 0 -- -- 98
2020-09-11 22:00:00 18.8 6 Nordeste 12 Nordeste 0 -- -- 98
2020-09-11 21:00:00 19.3 5 Nordeste 14 Norte 0 -- -- 97
2020-09-11 20:00:00 20.3 6 Nordeste 15 Nordeste 0 -- -- 94
2020-09-11 19:00:00 21.3 6 Nordeste 13 Este 0 -- -- 92
2020-09-11 18:00:00 22.4 6 Nordeste 13 Nordeste 0 -- -- 90
2020-09-11 17:00:00 23.5 6 Nordeste 12 Nordeste 0 -- -- 84
2020-09-11 16:00:00 22.9 8 Nordeste 14 Este 0 -- -- 84
2020-09-11 15:00:00 23.1 8 Nordeste 15 Este 0 -- -- 83
2020-09-11 14:00:00 22.4 10 Nordeste 18 Nordeste 0 -- -- 84
2020-09-11 13:00:00 22.3 5 Nordeste 20 Nordeste 0 -- -- 83
2020-09-11 12:00:00 21 9 Nordeste 21 Nordeste 0 -- -- 87
2020-09-11 11:00:00 19.8 10 Nordeste 17 Este 0 -- -- 96
2020-09-11 10:00:00 18.4 5 Nordeste 10 Nordeste 0 -- -- 100
2020-09-11 09:00:00 16.5 0 Calma 11 Nordeste 0 -- -- 100
2020-09-11 08:00:00 17.7 5 Nordeste 10 Nordeste 0 -- -- 100
2020-09-11 07:00:00 16.6 3 Nordeste 6 Nordeste 0 -- -- 100
2020-09-11 06:00:00 16.2 3 Sudoeste 12 Oeste 0 -- -- 100
2020-09-11 05:00:00 16.2 8 Oeste 13 Oeste 0 -- -- 100
2020-09-11 04:00:00 15.7 4 Sudoeste 9 Sudoeste 0 -- -- 100
2020-09-11 03:00:00 15.4 3 Sudoeste 6 Sudoeste 0 -- -- 100
2020-09-11 02:00:00 15.5 4 Sudoeste 5 Sudoeste 0 -- -- 100
2020-09-11 01:00:00 16.4 3 Oeste 6 Oeste 0 -- -- 100
2020-09-11 00:00:00 16.8 3 Oeste 8 Oeste 0 -- -- 98
2020-09-10 23:00:00 16.5 4 Sudoeste 6 Sudoeste 0 -- -- 97
2020-09-10 22:00:00 16.8 0 Calma 4 Norte 0 -- -- 95
2020-09-10 21:00:00 18.5 2 Norte 5 Nordeste 0 -- -- 93
2020-09-10 20:00:00 21.1 3 Nordeste 6 Norte 0 -- -- 87
2020-09-10 19:00:00 22 4 Norte 8 Nordeste 0 -- -- 86
2020-09-10 18:00:00 22.4 5 Nordeste 9 Norte 0 -- -- 84
2020-09-10 17:00:00 22.4 6 Nordeste 12 Nordeste 0 -- -- 84
2020-09-10 16:00:00 22.2 6 Norte 14 Norte 0 -- -- 85
2020-09-10 15:00:00 22.2 8 Nordeste 13 Norte 0 -- -- 83
2020-09-10 14:00:00 22.4 8 Nordeste 11 Norte 0 -- -- 81
2020-09-10 13:00:00 21.5 6 Nordeste 9 Nordeste 0 -- -- 84
2020-09-10 12:00:00 20.6 6 Nordeste 11 Norte 0 -- -- 90
2020-09-10 11:00:00 19 8 Nordeste 11 Nordeste 0 -- -- 96
2020-09-10 10:00:00 17.5 2 Sur 13 Sudoeste 0 -- -- 97
2020-09-10 09:00:00 16.1 8 Sudoeste 15 Oeste 0 -- -- 99
2020-09-10 08:00:00 15.2 9 Oeste 14 Sudoeste 0 -- -- 99
2020-09-10 07:00:00 15.4 8 Sudoeste 15 Oeste 0 -- -- 99
2020-09-10 06:00:00 15.7 9 Sudoeste 14 Sudoeste 0 -- -- 99
2020-09-10 05:00:00 15.8 6 Sudoeste 15 Sudoeste 0 -- -- 100
2020-09-10 04:00:00 16 8 Sudoeste 13 Sudoeste 0 -- -- 100
2020-09-10 03:00:00 16.1 7 Sudoeste 12 Oeste 0 -- -- 100
2020-09-10 02:00:00 16.5 8 Sudoeste 12 Oeste 0 -- -- 100
2020-09-10 01:00:00 15.2 3 Sudoeste 9 Oeste 0 -- -- 99
2020-09-10 00:00:00 16.4 7 Sudoeste 10 Sudoeste 0 -- -- 99
2020-09-09 23:00:00 16.8 2 Sudoeste 6 Sudoeste 0 -- -- 97
2020-09-09 22:00:00 17 0 Calma 4 Norte 0 -- -- 95
2020-09-09 21:00:00 19.1 4 Norte 10 Nordeste 0 -- -- 93
2020-09-09 20:00:00 20.7 4 Norte 13 Este 0 -- -- 87
2020-09-09 19:00:00 22.3 6 Este 13 Este 0 -- -- 84
2020-09-09 18:00:00 22.7 5 Nordeste 10 Nordeste 0 -- -- 82
2020-09-09 17:00:00 22.7 7 Norte 13 Nordeste 0 -- -- 80
2020-09-09 16:00:00 22.5 5 Norte 10 Nordeste 0 -- -- 79
2020-09-09 15:00:00 22.6 7 Nordeste 12 Norte 0 -- -- 78
2020-09-09 14:00:00 22.3 7 Nordeste 13 Norte 0 -- -- 78
2020-09-09 13:00:00 22.1 5 Nordeste 10 Nordeste 0 -- -- 76
2020-09-09 12:00:00 21.6 5 Nordeste 12 Norte 0 -- -- 76
2020-09-09 11:00:00 20 4 Nordeste 11 Nordeste 0 -- -- 83
2020-09-09 10:00:00 17.5 5 Sudoeste 14 Oeste 0 -- -- 89
2020-09-09 09:00:00 15.2 8 Sudoeste 18 Sudoeste 0 -- -- 92
2020-09-09 08:00:00 14.5 12 Sudoeste 17 Sudoeste 0 -- -- 94
2020-09-09 07:00:00 13.9 10 Sudoeste 15 Oeste 0 -- -- 95
2020-09-09 06:00:00 13.8 7 Sudoeste 17 Sudoeste 0 -- -- 95
2020-09-09 05:00:00 13.8 8 Sudoeste 14 Oeste 0 -- -- 95
2020-09-09 04:00:00 14 6 Sudoeste 15 Sudoeste 0 -- -- 94
2020-09-09 03:00:00 13.5 3 Sudoeste 10 Sudoeste 0 -- -- 94
2020-09-09 02:00:00 14.6 4 Sudoeste 8 Sudoeste 0 -- -- 90
2020-09-09 01:00:00 17 2 Nordeste 15 Este 0 -- -- 83
2020-09-09 00:00:00 18.1 11 Este 20 Este 0 -- -- 78
2020-09-08 23:00:00 18.3 9 Este 23 Este 0 -- -- 83
2020-09-08 22:00:00 18.5 11 Este 26 Este 0 -- -- 81
2020-09-08 21:00:00 19 13 Este 30 Nordeste 0 -- -- 79
2020-09-08 20:00:00 19.8 13 Este 23 Este 0 -- -- 79
2020-09-08 19:00:00 20.7 12 Este 22 Este 0 -- -- 79
2020-09-08 18:00:00 21.2 14 Este 29 Este 0 -- -- 78
2020-09-08 17:00:00 21.3 16 Este 31 Este 0 -- -- 77
2020-09-08 16:00:00 21.3 17 Este 30 Este 0 -- -- 78
2020-09-08 15:00:00 21.6 16 Este 29 Nordeste 0 -- -- 78
2020-09-08 14:00:00 21.7 17 Este 33 Este 0 -- -- 75
2020-09-08 13:00:00 21.8 14 Este 29 Este 0 -- -- 75
2020-09-08 12:00:00 21.2 15 Este 28 Este 0 -- -- 78
2020-09-08 11:00:00 20.1 14 Este 26 Este 0 -- -- 78
2020-09-08 10:00:00 18.6 15 Este 26 Este 0 -- -- 76
2020-09-08 09:00:00 17.4 12 Este 21 Este 0 -- -- 76
2020-09-08 08:00:00 16.7 10 Este 20 Este 0 -- -- 76
2020-09-08 07:00:00 16.7 12 Este 23 Este 0 -- -- 76
2020-09-08 06:00:00 16.7 9 Este 27 Este 0 -- -- 75
2020-09-08 05:00:00 16.8 14 Este 28 Este 0 -- -- 73
2020-09-08 04:00:00 16.6 11 Este 23 Este 0 -- -- 74
2020-09-08 03:00:00 16.8 12 Este 21 Este 0 -- -- 75
2020-09-08 02:00:00 16.9 11 Este 23 Este 0 -- -- 75
2020-09-08 01:00:00 17 12 Este 24 Este 0 -- -- 79
2020-09-08 00:00:00 17.3 13 Este 23 Este 0 -- -- 79
2020-09-07 23:00:00 17.5 10 Este 23 Este 0 -- -- 81
2020-09-07 22:00:00 17.6 6 Este 21 Este 0 -- -- 81
2020-09-07 21:00:00 18.7 14 Este 27 Este 0 -- -- 80
2020-09-07 20:00:00 20 12 Este 27 Este 0 -- -- 77
2020-09-07 19:00:00 20.9 17 Este 28 Nordeste 0 -- -- 70
2020-09-07 18:00:00 21.4 16 Este 28 Nordeste 0 -- -- 69
2020-09-07 17:00:00 21.8 12 Este 24 Este 0 -- -- 69
2020-09-07 16:00:00 22.1 12 Este 25 Este 0 -- -- 70
2020-09-07 15:00:00 21.7 12 Este 22 Nordeste 0 -- -- 70
2020-09-07 14:00:00 21.5 12 Nordeste 18 Este 0 -- -- 71
2020-09-07 13:00:00 21.5 8 Este 16 Nordeste 0 -- -- 71
2020-09-07 12:00:00 20.7 7 Nordeste 13 Este 0 -- -- 73
2020-09-07 11:00:00 18.5 5 Nordeste 9 Nordeste 0 -- -- 82
2020-09-07 10:00:00 15.5 5 Sudoeste 10 Sudoeste 0 -- -- 98
2020-09-07 09:00:00 13.8 7 Sudoeste 14 Sudoeste 0 -- -- 99
2020-09-07 08:00:00 12.7 5 Sudoeste 8 Sudoeste 0 -- -- 100
2020-09-07 07:00:00 13.3 4 Sudoeste 7 Sudoeste 0 -- -- 99
2020-09-07 06:00:00 14.1 4 Sudoeste 6 Oeste 0 -- -- 99
2020-09-07 05:00:00 15.4 3 Oeste 5 Sudoeste 0 -- -- 99
2020-09-07 04:00:00 15.7 2 Oeste 5 Sudoeste 0 -- -- 98
2020-09-07 03:00:00 16.1 3 Sudoeste 5 Sudoeste 0 -- -- 97
2020-09-07 02:00:00 16.4 2 Oeste 6 Sur 0.2 -- -- 95
2020-09-07 01:00:00 16.8 2 Sudoeste 8 Norte 0 -- -- 92
2020-09-07 00:00:00 17.7 4 Sudeste 23 Este 0 -- -- 86
2020-09-06 23:00:00 18.4 12 Este 26 Este 0 -- -- 79
2020-09-06 22:00:00 17.4 0 Calma 17 Este 0 -- -- 89
2020-09-06 21:00:00 18.5 9 Este 21 Nordeste 0 -- -- 79
2020-09-06 20:00:00 18.8 12 Este 20 Nordeste 0 -- -- 78
2020-09-06 19:00:00 20 7 Este 15 Este 0 -- -- 76
2020-09-06 18:00:00 20.8 9 Este 15 Este 0 -- -- 71
2020-09-06 17:00:00 21.7 9 Este 15 Este 0 -- -- 70
2020-09-06 16:00:00 20.6 7 Este 15 Este 0 -- -- 74
2020-09-06 15:00:00 20.2 9 Este 15 Este 0 -- -- 75
2020-09-06 14:00:00 19.7 7 Este 13 Este 0 -- -- 78
2020-09-06 13:00:00 19 7 Este 12 Este 0 -- -- 81
2020-09-06 12:00:00 18 6 Sudeste 16 Este 0 -- -- 90
2020-09-06 11:00:00 17 3 Sudeste 7 Sudeste 0 -- -- 98
2020-09-06 10:00:00 16 3 Sudoeste 9 Norte 0.6 -- -- 100
2020-09-06 09:00:00 15.6 5 Noroeste 14 Noroeste 0.2 -- -- 100
2020-09-06 08:00:00 15.6 2 Oeste 4 Oeste 0 -- -- 100
2020-09-06 07:00:00 15.7 0 Calma 3 Oeste 0 -- -- 100
2020-09-06 06:00:00 15.8 0 Calma 6 Oeste 0 -- -- 100
2020-09-06 05:00:00 15.9 2 Sudeste 19 Este 0 -- -- 100
2020-09-06 04:00:00 16.2 11 Este 20 Nordeste 0.2 -- -- 100
2020-09-06 03:00:00 16.7 13 Este 25 Nordeste 0.4 -- -- 100
2020-09-06 02:00:00 17 11 Este 22 Este 0.4 -- -- 100
2020-09-06 01:00:00 17.2 10 Este 17 Este 0.2 -- -- 100
2020-09-06 00:00:00 17.3 11 Este 22 Nordeste 0.6 -- -- 100
2020-09-05 23:00:00 17.6 14 Este 29 Este 1.2 -- -- 100
2020-09-05 22:00:00 17.6 19 Este 35 Este 6.8 -- -- 100
2020-09-05 21:00:00 17.9 10 Este 30 Nordeste 2.4 -- -- 100
2020-09-05 20:00:00 18.1 10 Este 23 Nordeste 2.6 -- -- 99
2020-09-05 19:00:00 18.3 12 Este 24 Nordeste 0 -- -- 98
2020-09-05 18:00:00 18.3 6 Este 15 Este 0.4 -- -- 98
2020-09-05 17:00:00 18.5 9 Este 27 Este 0.6 -- -- 98
2020-09-05 16:00:00 18.6 15 Este 26 Nordeste 2.4 -- -- 96
2020-09-05 15:00:00 19.6 3 Nordeste 8 Este 0 -- -- 92
2020-09-05 14:00:00 20 3 Sudeste 8 Sudeste 0 -- -- 94
2020-09-05 13:00:00 19.1 4 Sur 9 Sudeste 0.2 -- -- 98
2020-09-05 12:00:00 18.8 4 Sudeste 8 Este 0.6 -- -- 99
2020-09-05 11:00:00 18.3 0 Calma 6 Sur 1 -- -- 98
2020-09-05 10:00:00 18.4 2 Sudeste 5 Sur 0.8 -- -- 97
2020-09-05 09:00:00 18.8 5 Sudeste 20 Norte 0.2 -- -- 94
2020-09-05 08:00:00 19 7 Norte 19 Nordeste 0.2 -- -- 94
2020-09-05 07:00:00 19.1 6 Nordeste 17 Norte 0 -- -- 96
2020-09-05 06:00:00 19.5 2 Sur 5 Sur 0.2 -- -- 97
2020-09-05 05:00:00 19.8 0 Calma 7 Oeste 0.2 -- -- 95
2020-09-05 04:00:00 20.3 3 Noroeste 8 Noroeste 0 -- -- 94
2020-09-05 03:00:00 20.5 3 Sudoeste 9 Oeste 0 -- -- 91
2020-09-05 02:00:00 20.6 5 Sudoeste 11 Sudoeste 0 -- -- 91
2020-09-05 01:00:00 20.5 4 Oeste 12 Sudoeste 0 -- -- 92
2020-09-05 00:00:00 20.4 5 Sudoeste 11 Oeste 0 -- -- 94
2020-09-04 23:00:00 20.5 5 Oeste 11 Sudoeste 0 -- -- 94
2020-09-04 22:00:00 20.4 5 Oeste 12 Oeste 0 -- -- 95
2020-09-04 21:00:00 20.8 8 Noroeste 15 Noroeste 0 -- -- 93
2020-09-04 20:00:00 22.2 5 Norte 9 Norte 0 -- -- 90
2020-09-04 19:00:00 23 5 Norte 10 Norte 0 -- -- 89
2020-09-04 18:00:00 23.6 6 Norte 10 Nordeste 0 -- -- 86
2020-09-04 17:00:00 23.7 7 Nordeste 13 Este 0 -- -- 85
2020-09-04 16:00:00 23.8 7 Nordeste 13 Nordeste 0 -- -- 85
2020-09-04 15:00:00 23.6 9 Nordeste 17 Nordeste 0 -- -- 86
2020-09-04 14:00:00 23.6 7 Nordeste 13 Nordeste 0 -- -- 86
2020-09-04 13:00:00 22.9 8 Nordeste 13 Nordeste 0 -- -- 86
2020-09-04 12:00:00 22 7 Nordeste 12 Nordeste 0 -- -- 86
2020-09-04 11:00:00 20.7 6 Nordeste 10 Norte 0 -- -- 95
2020-09-04 10:00:00 18.6 4 Sudoeste 10 Sudoeste 0 -- -- 100
2020-09-04 09:00:00 16.2 7 Sudoeste 11 Sudoeste 0 -- -- 100
2020-09-04 08:00:00 15.9 8 Sudoeste 13 Sudoeste 0 -- -- 100
2020-09-04 07:00:00 16.1 7 Sudoeste 12 Oeste 0 -- -- 100
2020-09-04 06:00:00 16.2 7 Sudoeste 13 Oeste 0 -- -- 99
2020-09-04 05:00:00 16.2 6 Sudoeste 12 Oeste 0 -- -- 99
2020-09-04 04:00:00 16.4 8 Sudoeste 14 Sudoeste 0 -- -- 99
2020-09-04 03:00:00 16.5 8 Sudoeste 12 Oeste 0 -- -- 99
2020-09-04 02:00:00 16.9 8 Oeste 11 Sudoeste 0 -- -- 98
2020-09-04 01:00:00 16.6 6 Sudoeste 10 Oeste 0 -- -- 98
2020-09-04 00:00:00 17 5 Sudoeste 9 Sudoeste 0 -- -- 97
2020-09-03 23:00:00 17.5 4 Sudoeste 6 Sudoeste 0 -- -- 95
2020-09-03 22:00:00 19 2 Sudoeste 12 Este 0 -- -- 91
2020-09-03 21:00:00 20.4 9 Este 17 Este 0 -- -- 89
2020-09-03 20:00:00 21.9 10 Este 19 Este 0 -- -- 81
2020-09-03 19:00:00 22.9 10 Este 19 Este 0 -- -- 77
2020-09-03 18:00:00 23.4 10 Este 22 Nordeste 0 -- -- 75
2020-09-03 17:00:00 23.5 10 Este 18 Este 0 -- -- 72
2020-09-03 16:00:00 23.3 10 Este 18 Este 0 -- -- 69
2020-09-03 15:00:00 22.7 10 Nordeste 16 Nordeste 0 -- -- 73
2020-09-03 14:00:00 22.6 9 Nordeste 15 Nordeste 0 -- -- 77
2020-09-03 13:00:00 22.2 9 Nordeste 15 Nordeste 0 -- -- 78
2020-09-03 12:00:00 21.4 7 Nordeste 12 Nordeste 0 -- -- 80
2020-09-03 11:00:00 19.7 6 Nordeste 8 Nordeste 0 -- -- 88
2020-09-03 10:00:00 17.5 3 Sur 13 Sudoeste 0 -- -- 97
2020-09-03 09:00:00 15.8 8 Sudoeste 13 Sudoeste 0 -- -- 99
2020-09-03 08:00:00 14.3 9 Sudoeste 15 Sudoeste 0 -- -- 99
2020-09-03 07:00:00 14.4 7 Sudoeste 13 Sudoeste 0 -- -- 99
2020-09-03 06:00:00 14.4 8 Sudoeste 13 Sudoeste 0 -- -- 98
2020-09-03 05:00:00 14.4 6 Sudoeste 13 Oeste 0 -- -- 98
2020-09-03 04:00:00 14.7 7 Sudoeste 13 Oeste 0 -- -- 98
2020-09-03 03:00:00 15 9 Sudoeste 13 Sudoeste 0 -- -- 97
2020-09-03 02:00:00 15.3 7 Sudoeste 14 Sudoeste 0 -- -- 96
2020-09-03 01:00:00 15.5 6 Sudoeste 11 Oeste 0 -- -- 95
2020-09-03 00:00:00 16.2 4 Oeste 8 Noroeste 0 -- -- 92
2020-09-02 23:00:00 18.4 4 Sudeste 19 Este 0 -- -- 84
2020-09-02 22:00:00 19 4 Este 19 Este 0 -- -- 83
2020-09-02 21:00:00 20.1 13 Este 27 Este 0 -- -- 79
2020-09-02 20:00:00 21.6 14 Este 24 Este 0 -- -- 74
2020-09-02 19:00:00 22.4 13 Este 23 Este 0 -- -- 75
2020-09-02 18:00:00 22.3 13 Este 24 Este 0 -- -- 74
2020-09-02 17:00:00 22.5 14 Nordeste 23 Este 0 -- -- 71
2020-09-02 16:00:00 22.3 14 Nordeste 24 Este 0 -- -- 72
2020-09-02 15:00:00 22.2 14 Este 23 Nordeste 0 -- -- 75
2020-09-02 14:00:00 21.8 14 Nordeste 23 Este 0 -- -- 73
2020-09-02 13:00:00 21.7 9 Nordeste 15 Nordeste 0 -- -- 76
2020-09-02 12:00:00 20.8 9 Norte 13 Norte 0 -- -- 79
2020-09-02 11:00:00 19.8 5 Nordeste 8 Nordeste 0 -- -- 80
2020-09-02 10:00:00 17.6 6 Sudoeste 12 Sudoeste 0 -- -- 92
2020-09-02 09:00:00 15.6 8 Sudoeste 13 Oeste 0 -- -- 96
2020-09-02 08:00:00 15.2 6 Sudoeste 13 Sudoeste 0 -- -- 97
2020-09-02 07:00:00 15 8 Sudoeste 11 Sudoeste 0 -- -- 97
2020-09-02 06:00:00 15.2 7 Sudoeste 12 Sudoeste 0 -- -- 96
2020-09-02 05:00:00 15.3 6 Sudoeste 12 Sudoeste 0 -- -- 96
2020-09-02 04:00:00 15.7 6 Sudoeste 12 Sudoeste 0 -- -- 94
2020-09-02 03:00:00 16.4 7 Oeste 12 Sudoeste 0 -- -- 94
2020-09-02 02:00:00 16.3 7 Oeste 10 Sudoeste 0 -- -- 93
2020-09-02 01:00:00 17 5 Sudoeste 10 Sudoeste 0 -- -- 92
2020-09-02 00:00:00 17.2 3 Sudoeste 6 Sudoeste 0 -- -- 90
2020-09-01 23:00:00 18.5 3 Noroeste 10 Noroeste 0 -- -- 84
2020-09-01 22:00:00 19 5 Norte 19 Nordeste 0 -- -- 81
2020-09-01 21:00:00 19.4 8 Norte 19 Norte 0 -- -- 81
2020-09-01 20:00:00 19.7 8 Norte 19 Nordeste 0 -- -- 81
2020-09-01 19:00:00 20.3 6 Nordeste 14 Norte 0 -- -- 78
2020-09-01 18:00:00 21 7 Nordeste 15 Nordeste 0 -- -- 74
2020-09-01 17:00:00 22.3 8 Nordeste 15 Norte 0 -- -- 71
2020-09-01 16:00:00 21.8 6 Norte 13 Nordeste 0 -- -- 68
2020-09-01 15:00:00 21.6 8 Nordeste 16 Nordeste 0 -- -- 67
2020-09-01 14:00:00 22.1 8 Nordeste 16 Norte 0 -- -- 66
2020-09-01 13:00:00 22.1 7 Nordeste 16 Norte 0 -- -- 70
2020-09-01 12:00:00 21.9 7 Nordeste 13 Norte 0 -- -- 77
2020-09-01 11:00:00 19.6 2 Sudoeste 10 Sudoeste 0 -- -- 84
2020-09-01 10:00:00 17.3 8 Sudoeste 12 Oeste 0 -- -- 86
2020-09-01 09:00:00 15.5 9 Oeste 14 Sudoeste 0 -- -- 88
2020-09-01 08:00:00 15.1 9 Sudoeste 15 Oeste 0 -- -- 89
2020-09-01 07:00:00 14.5 9 Sudoeste 14 Sudoeste 0 -- -- 92
2020-09-01 06:00:00 14.6 9 Sudoeste 15 Sudoeste 0 -- -- 91
2020-09-01 05:00:00 15.3 8 Sudoeste 14 Sudoeste 0 -- -- 87
2020-09-01 04:00:00 15.6 10 Sudoeste 16 Oeste 0 -- -- 88
2020-09-01 03:00:00 15.6 10 Sudoeste 17 Sudoeste 0 -- -- 86
2020-09-01 02:00:00 15.5 8 Sudoeste 17 Oeste 0 -- -- 89
2020-09-01 01:00:00 15.8 9 Sudoeste 15 Oeste 0 -- -- 90
2020-09-01 00:00:00 16.5 5 Oeste 14 Oeste 0 -- -- 88
2020-08-31 23:00:00 17.2 7 Sudoeste 13 Sudoeste 0 -- -- 87
2020-08-31 22:00:00 17.6 9 Sudoeste 13 Sudoeste 0 -- -- 86
2020-08-31 21:00:00 18.5 0 Calma 10 Este 0 -- -- 82
2020-08-31 20:00:00 19.9 4 Este 17 Este 0 -- -- 74
2020-08-31 19:00:00 21.1 9 Este 15 Este 0 -- -- 66
2020-08-31 18:00:00 20.5 9 Este 18 Este 0 -- -- 67
2020-08-31 17:00:00 21.2 11 Este 19 Este 0 -- -- 64
2020-08-31 16:00:00 21.7 11 Este 22 Este 0 -- -- 62
2020-08-31 15:00:00 21.2 11 Nordeste 20 Nordeste 0 -- -- 63
2020-08-31 14:00:00 21.1 10 Este 17 Este 0 -- -- 62
2020-08-31 13:00:00 20.1 11 Este 19 Este 0 -- -- 63
2020-08-31 12:00:00 20 10 Este 20 Este 0 -- -- 65
2020-08-31 11:00:00 18.1 10 Este 19 Este 0 -- -- 68
2020-08-31 10:00:00 15.1 3 Sur 13 Sudoeste 0 -- -- 86
2020-08-31 09:00:00 11.9 7 Sudoeste 13 Sudoeste 0 -- -- 93
2020-08-31 08:00:00 10.6 9 Sudoeste 13 Oeste 0 -- -- 96
2020-08-31 07:00:00 10.3 6 Sudoeste 12 Sudoeste 0 -- -- 97
2020-08-31 06:00:00 10.4 8 Sudoeste 12 Oeste 0 -- -- 97
2020-08-31 05:00:00 10.5 5 Sudoeste 11 Sudoeste 0 -- -- 96
2020-08-31 04:00:00 11 9 Sudoeste 13 Sudoeste 0 -- -- 95
2020-08-31 03:00:00 11.7 10 Sudoeste 14 Oeste 0 -- -- 94
2020-08-31 02:00:00 11.6 10 Sudoeste 13 Sudoeste 0 -- -- 95
2020-08-31 01:00:00 12.2 10 Sudoeste 14 Sudoeste 0 -- -- 93
2020-08-31 00:00:00 12.5 10 Sudoeste 14 Sudoeste 0 -- -- 94
2020-08-30 23:00:00 13.1 8 Sudoeste 13 Oeste 0 -- -- 94
2020-08-30 22:00:00 13.5 3 Oeste 5 Noroeste 0 -- -- 89
2020-08-30 21:00:00 16.2 0 Calma 13 Este 0 -- -- 79
2020-08-30 20:00:00 18.8 7 Este 13 Nordeste 0 -- -- 68
2020-08-30 19:00:00 19.4 6 Nordeste 13 Este 0 -- -- 66
2020-08-30 18:00:00 18.9 3 Nordeste 9 Sudoeste 0 -- -- 67
2020-08-30 17:00:00 17.9 6 Sudoeste 11 Nordeste 0 -- -- 76
2020-08-30 16:00:00 18.9 5 Norte 10 Nordeste 0 -- -- 66
2020-08-30 15:00:00 18.1 5 Sudoeste 9 Oeste 0 -- -- 77
2020-08-30 14:00:00 16.8 7 Oeste 13 Sudoeste 0 -- -- 82
2020-08-30 13:00:00 16.4 8 Sudoeste 15 Sudoeste 0.2 -- -- 88
2020-08-30 12:00:00 14.6 5 Oeste 18 Noroeste 8.2 -- -- 93
2020-08-30 11:00:00 17.9 8 Sudoeste 14 Oeste 0.2 -- -- 80
2020-08-30 10:00:00 15.6 9 Oeste 16 Oeste 0 -- -- 90
2020-08-30 09:00:00 13.8 8 Oeste 16 Sudoeste 0 -- -- 96
2020-08-30 08:00:00 13.3 9 Oeste 16 Oeste 0 -- -- 98
2020-08-30 07:00:00 13.2 7 Sudoeste 17 Sudoeste 2.2 -- -- 99
2020-08-30 06:00:00 13.3 11 Oeste 17 Oeste 1.2 -- -- 99
2020-08-30 05:00:00 13.2 8 Oeste 15 Oeste 6 -- -- 98
2020-08-30 04:00:00 13.4 7 Sudoeste 22 Sudoeste 4 -- -- 98
2020-08-30 03:00:00 13.4 10 Oeste 17 Oeste 3.2 -- -- 97
2020-08-30 02:00:00 13.6 7 Sudoeste 16 Oeste 0.4 -- -- 97
2020-08-30 01:00:00 13.6 9 Oeste 17 Oeste 1.4 -- -- 97
2020-08-30 00:00:00 13.6 8 Sudoeste 16 Oeste 10 -- -- 97
2020-08-29 23:00:00 14 8 Oeste 23 Norte 4.8 -- -- 94
2020-08-29 22:00:00 14.6 6 Oeste 16 Sudoeste 0.4 -- -- 92
2020-08-29 21:00:00 15.5 7 Norte 20 Nordeste 1 -- -- 87
2020-08-29 20:00:00 17.7 3 Este 14 Norte 0 -- -- 75
2020-08-29 19:00:00 17.5 6 Sur 12 Sudoeste 0 -- -- 86
2020-08-29 18:00:00 15.7 3 Oeste 17 Sudoeste 0 -- -- 94
2020-08-29 17:00:00 15.3 10 Sudoeste 28 Oeste 4 -- -- 91
2020-08-29 16:00:00 17.6 4 Sur 22 Nordeste 1.4 -- -- 90
2020-08-29 15:00:00 18.2 11 Norte 33 Norte 2 -- -- 76
2020-08-29 14:00:00 19.4 5 Sudeste 26 Norte 0.2 -- -- 78
2020-08-29 13:00:00 18 5 Sudeste 43 Nordeste 2 -- -- 86
2020-08-29 12:00:00 17.5 6 Sur 18 Norte 0 -- -- 87
2020-08-29 11:00:00 15.5 8 Oeste 23 Oeste 3 -- -- 96
2020-08-29 10:00:00 14.7 13 Oeste 27 Sudoeste 2.4 -- -- 96
2020-08-29 09:00:00 14.4 11 Sudoeste 24 Sudoeste 4.2 -- -- 95
2020-08-29 08:00:00 14.3 13 Sudoeste 28 Oeste 6.6 -- -- 95
2020-08-29 07:00:00 14.3 12 Oeste 20 Oeste 0 -- -- 94
2020-08-29 06:00:00 14 10 Oeste 28 Sudoeste 2.2 -- -- 94
2020-08-29 05:00:00 14.6 12 Oeste 23 Oeste 0.6 -- -- 91
2020-08-29 04:00:00 14.4 10 Oeste 20 Oeste 0.4 -- -- 92
2020-08-29 03:00:00 14.4 9 Oeste 19 Oeste 0 -- -- 90
2020-08-29 02:00:00 14.5 6 Sudoeste 13 Sudoeste 1 -- -- 91
2020-08-29 01:00:00 14.8 6 Oeste 19 Oeste 1.2 -- -- 88
2020-08-29 00:00:00 15.4 10 Sudoeste 24 Oeste 0.4 -- -- 83
2020-08-28 23:00:00 16.3 7 Oeste 16 Oeste 0 -- -- 77
2020-08-28 22:00:00 16.9 8 Oeste 19 Sudoeste 0 -- -- 75
2020-08-28 21:00:00 17.8 8 Oeste 27 Oeste 0 -- -- 74
2020-08-28 20:00:00 18.8 10 Oeste 32 Oeste 0 -- -- 67
2020-08-28 19:00:00 21.1 11 Oeste 32 Sudoeste 0 -- -- 61
2020-08-28 18:00:00 21.9 14 Oeste 32 Oeste 0 -- -- 56
2020-08-28 17:00:00 21.7 12 Oeste 31 Oeste 0 -- -- 59
2020-08-28 16:00:00 21.5 13 Oeste 35 Oeste 0 -- -- 62
2020-08-28 15:00:00 21.8 14 Oeste 31 Oeste 0 -- -- 56
2020-08-28 14:00:00 20.2 15 Oeste 31 Oeste 0 -- -- 63
2020-08-28 13:00:00 22.1 11 Oeste 37 Oeste 0 -- -- 60
2020-08-28 12:00:00 21.9 17 Sudoeste 31 Sudoeste 0 -- -- 55
2020-08-28 11:00:00 20.5 12 Sudoeste 24 Sudoeste 0 -- -- 67
2020-08-28 10:00:00 18.6 11 Sudoeste 23 Sur 0 -- -- 74
2020-08-28 09:00:00 18.1 10 Sudoeste 18 Oeste 0 -- -- 83
2020-08-28 08:00:00 17.7 6 Oeste 13 Oeste 0 -- -- 86
2020-08-28 07:00:00 17.7 8 Sudoeste 15 Sudoeste 0 -- -- 87
2020-08-28 06:00:00 17.5 4 Sudoeste 10 Oeste 0 -- -- 92
2020-08-28 05:00:00 17.7 4 Sudoeste 13 Oeste 0 -- -- 97
2020-08-28 04:00:00 18.1 8 Oeste 21 Oeste 0.2 -- -- 96
2020-08-28 03:00:00 18.5 6 Oeste 15 Sudoeste 0.2 -- -- 97
2020-08-28 02:00:00 18.9 7 Sudoeste 20 Oeste 0.2 -- -- 96
2020-08-28 01:00:00 19.7 6 Sudoeste 18 Sudoeste 0.4 -- -- 95
2020-08-28 00:00:00 21 8 Oeste 18 Oeste 0 -- -- 91
2020-08-27 23:00:00 22 2 Sudoeste 12 Sudoeste 0 -- -- 86
2020-08-27 22:00:00 22 2 Sudoeste 8 Sudoeste 0 -- -- 85
2020-08-27 21:00:00 22.5 4 Oeste 10 Oeste 0 -- -- 82
2020-08-27 20:00:00 23 5 Sudoeste 10 Sudoeste 0 -- -- 83
2020-08-27 19:00:00 23 3 Norte 8 Norte 0 -- -- 85
2020-08-27 18:00:00 23.2 4 Nordeste 10 Nordeste 0 -- -- 84
2020-08-27 17:00:00 23.5 5 Nordeste 15 Norte 0 -- -- 84
2020-08-27 16:00:00 23.9 10 Nordeste 18 Norte 0 -- -- 82
2020-08-27 15:00:00 24.6 4 Norte 18 Norte 0 -- -- 76
2020-08-27 14:00:00 24.9 4 Sudoeste 18 Oeste 0 -- -- 79
2020-08-27 13:00:00 23.9 9 Norte 23 Noroeste 0 -- -- 85
2020-08-27 12:00:00 23.3 10 Norte 20 Norte 0 -- -- 86
2020-08-27 11:00:00 23.4 9 Noroeste 22 Noroeste 0 -- -- 87
2020-08-27 10:00:00 23.1 4 Sudoeste 13 Sudoeste 0 -- -- 88
2020-08-27 09:00:00 21.1 8 Oeste 14 Oeste 0 -- -- 99
2020-08-27 08:00:00 19.7 3 Oeste 8 Oeste 0 -- -- 100
2020-08-27 07:00:00 19.1 2 Oeste 12 Noroeste 0 -- -- 99
2020-08-27 06:00:00 19 3 Sudoeste 5 Oeste 0 -- -- 98
2020-08-27 05:00:00 19.4 2 Oeste 7 Norte 0 -- -- 97
2020-08-27 04:00:00 20.6 0 Calma 8 Sudoeste 0 -- -- 96
2020-08-27 03:00:00 21 2 Sudoeste 6 Sudoeste 0 -- -- 96
2020-08-27 02:00:00 21.2 4 Oeste 8 Sudoeste 0 -- -- 96
2020-08-27 01:00:00 21.2 2 Sudoeste 14 Este 0 -- -- 96
2020-08-27 00:00:00 21.4 7 Este 17 Este 0 -- -- 97
2020-08-26 23:00:00 21.5 7 Este 17 Este 0 -- -- 97
2020-08-26 22:00:00 21.5 9 Este 18 Este 0 -- -- 96
2020-08-26 21:00:00 21.7 10 Este 22 Este 0 -- -- 94
2020-08-26 20:00:00 22.2 9 Este 22 Este 0 -- -- 91
2020-08-26 19:00:00 23.3 12 Este 22 Este 0 -- -- 87
2020-08-26 18:00:00 24 14 Este 26 Este 0 -- -- 84
2020-08-26 17:00:00 24.3 12 Este 22 Este 0 -- -- 85
2020-08-26 16:00:00 24 15 Este 26 Nordeste 0 -- -- 84
2020-08-26 15:00:00 24 12 Este 22 Este 0 -- -- 84
2020-08-26 14:00:00 24 13 Nordeste 20 Nordeste 0 -- -- 86
2020-08-26 13:00:00 23.7 8 Norte 12 Norte 0 -- -- 88
2020-08-26 12:00:00 23.9 8 Nordeste 13 Nordeste 0 -- -- 88
2020-08-26 11:00:00 22.4 4 Nordeste 8 Nordeste 0 -- -- 94
2020-08-26 10:00:00 21.8 5 Norte 6 Norte 0 -- -- 98
2020-08-26 09:00:00 21.3 0 Calma 3 Sudeste 0 -- -- 100
2020-08-26 08:00:00 20.7 0 Calma 3 Sudeste 0 -- -- 100
2020-08-26 07:00:00 20.8 3 Sudoeste 5 Sudoeste 0 -- -- 99
2020-08-26 06:00:00 20.9 0 Calma 4 Sudoeste 0 -- -- 99
2020-08-26 05:00:00 21 0 Calma 6 Norte 0 -- -- 98
2020-08-26 04:00:00 21 0 Calma 4 Norte 0 -- -- 98
2020-08-26 03:00:00 21 2 Norte 4 Este 0 -- -- 97
2020-08-26 02:00:00 21.1 2 Nordeste 6 Norte 0 -- -- 97
2020-08-26 01:00:00 21.2 2 Noroeste 6 Noroeste 0 -- -- 96
2020-08-26 00:00:00 21.2 3 Norte 6 Norte 0 -- -- 95
2020-08-25 23:00:00 21.5 2 Oeste 5 Oeste 0 -- -- 93
2020-08-25 22:00:00 21.7 4 Sur 6 Sur 0 -- -- 92
2020-08-25 21:00:00 22.2 3 Oeste 11 Nordeste 0 -- -- 89
2020-08-25 20:00:00 23.7 6 Norte 14 Nordeste 0 -- -- 78
2020-08-25 19:00:00 25.2 6 Nordeste 18 Nordeste 0 -- -- 70
2020-08-25 18:00:00 25.8 8 Este 15 Este 0 -- -- 67
2020-08-25 17:00:00 25.7 8 Nordeste 16 Este 0 -- -- 67
2020-08-25 16:00:00 25.1 10 Nordeste 13 Nordeste 0 -- -- 66
2020-08-25 15:00:00 24.3 7 Nordeste 14 Nordeste 0 -- -- 72
2020-08-25 14:00:00 23.9 9 Nordeste 17 Norte 0 -- -- 72
2020-08-25 13:00:00 23.7 12 Norte 19 Norte 0 -- -- 75
2020-08-25 12:00:00 24.3 9 Norte 18 Nordeste 0 -- -- 69
2020-08-25 11:00:00 23.2 9 Noroeste 18 Noroeste 0 -- -- 71
2020-08-25 10:00:00 21.2 5 Nordeste 10 Nordeste 0 -- -- 85
2020-08-25 09:00:00 18.8 5 Sudoeste 9 Sudoeste 0 -- -- 95
2020-08-25 08:00:00 17.9 6 Sudoeste 13 Oeste 0 -- -- 92
2020-08-25 07:00:00 18.3 9 Sudoeste 17 Oeste 0 -- -- 94
2020-08-25 06:00:00 16.9 6 Oeste 12 Sudoeste 0 -- -- 98
2020-08-25 05:00:00 17.1 5 Sudoeste 16 Oeste 0 -- -- 97
2020-08-25 04:00:00 16.3 4 Sudoeste 10 Sudoeste 0 -- -- 97
2020-08-25 03:00:00 17.1 8 Sudoeste 12 Sudoeste 0 -- -- 97
2020-08-25 02:00:00 17.1 8 Sudoeste 13 Sudoeste 0 -- -- 96
2020-08-25 01:00:00 17.4 8 Oeste 12 Sudoeste 0 -- -- 96
2020-08-25 00:00:00 17.9 7 Oeste 12 Oeste 0 -- -- 94
2020-08-24 23:00:00 18.3 4 Sudoeste 9 Oeste 0 -- -- 92
2020-08-24 22:00:00 19.8 6 Nordeste 19 Este 0 -- -- 87
2020-08-24 21:00:00 20.6 11 Este 23 Este 0 -- -- 85
2020-08-24 20:00:00 22.1 13 Este 26 Este 0 -- -- 80
2020-08-24 19:00:00 22.6 17 Este 29 Este 0 -- -- 75
2020-08-24 18:00:00 23.2 16 Este 30 Este 0 -- -- 74
2020-08-24 17:00:00 23.6 17 Este 31 Nordeste 0 -- -- 69
2020-08-24 16:00:00 23.9 16 Este 33 Este 0 -- -- 66
2020-08-24 15:00:00 23.6 19 Este 33 Este 0 -- -- 65
2020-08-24 14:00:00 23 17 Este 30 Este 0 -- -- 70
2020-08-24 13:00:00 23.3 15 Este 27 Este 0 -- -- 69
2020-08-24 12:00:00 22.7 15 Este 29 Este 0 -- -- 74
2020-08-24 11:00:00 21.7 14 Este 23 Este 0 -- -- 80
2020-08-24 10:00:00 20 6 Nordeste 12 Nordeste 0 -- -- 89
2020-08-24 09:00:00 17.9 4 Sudoeste 10 Sudoeste 0 -- -- 98
2020-08-24 08:00:00 17.1 6 Oeste 10 Oeste 0 -- -- 98
2020-08-24 07:00:00 17.9 5 Sudoeste 10 Sudoeste 0 -- -- 97
2020-08-24 06:00:00 18.2 0 Calma 6 Este 0 -- -- 95
2020-08-24 05:00:00 18.4 3 Noroeste 8 Sudoeste 0 -- -- 95
2020-08-24 04:00:00 18.9 4 Sur 9 Nordeste 0 -- -- 93
2020-08-24 03:00:00 18.9 2 Sur 11 Norte 0 -- -- 93
2020-08-24 02:00:00 19 6 Nordeste 12 Nordeste 0.2 -- -- 92
2020-08-24 01:00:00 19 4 Nordeste 10 Este 0 -- -- 91
2020-08-24 00:00:00 19.8 3 Sudeste 16 Nordeste 0 -- -- 86
2020-08-23 23:00:00 20 7 Este 15 Nordeste 0 -- -- 84
2020-08-23 22:00:00 20.5 8 Este 14 Este 0 -- -- 80
2020-08-23 21:00:00 20.7 9 Este 18 Nordeste 0 -- -- 78
2020-08-23 20:00:00 21.2 11 Este 19 Nordeste 0 -- -- 78
2020-08-23 19:00:00 22 10 Este 19 Nordeste 0 -- -- 74
2020-08-23 18:00:00 22.9 11 Este 21 Este 0 -- -- 71
2020-08-23 17:00:00 23.3 13 Este 23 Este 0 -- -- 70
2020-08-23 16:00:00 23.8 10 Este 23 Nordeste 0 -- -- 71
2020-08-23 15:00:00 23.3 12 Nordeste 21 Este 0 -- -- 72
2020-08-23 14:00:00 23.2 9 Nordeste 21 Nordeste 0 -- -- 74
2020-08-23 13:00:00 23 10 Este 15 Este 0 -- -- 72
2020-08-23 12:00:00 21.6 6 Nordeste 11 Nordeste 0 -- -- 78
2020-08-23 11:00:00 21.1 4 Este 10 Este 0 -- -- 82
2020-08-23 10:00:00 18.6 4 Sudoeste 12 Sudoeste 0 -- -- 88
2020-08-23 09:00:00 16.1 8 Sudoeste 14 Sudoeste 0 -- -- 94
2020-08-23 08:00:00 15.6 9 Oeste 17 Oeste 0 -- -- 95
2020-08-23 07:00:00 15.3 10 Sudoeste 15 Sudoeste 0 -- -- 94
2020-08-23 06:00:00 15.6 9 Oeste 15 Sudoeste 0 -- -- 95
2020-08-23 05:00:00 15.5 9 Sudoeste 14 Oeste 0 -- -- 95
2020-08-23 04:00:00 16.2 8 Oeste 14 Sudoeste 0 -- -- 94
2020-08-23 03:00:00 16.8 7 Oeste 13 Sudoeste 0 -- -- 94
2020-08-23 02:00:00 17.4 5 Sudoeste 9 Sudoeste 0 -- -- 94
2020-08-23 01:00:00 18 3 Oeste 9 Sudoeste 0 -- -- 92
2020-08-23 00:00:00 18.5 4 Sudoeste 8 Oeste 0 -- -- 90
2020-08-22 23:00:00 18.9 4 Sudoeste 6 Sudoeste 0 -- -- 89
2020-08-22 22:00:00 18.8 3 Oeste 5 Noroeste 0 -- -- 87
2020-08-22 21:00:00 20.1 3 Noroeste 5 Nordeste 0 -- -- 83
2020-08-22 20:00:00 21 4 Este 12 Nordeste 0 -- -- 77
2020-08-22 19:00:00 20.9 4 Norte 8 Norte 0 -- -- 76
2020-08-22 18:00:00 21.8 5 Nordeste 9 Norte 0 -- -- 73
2020-08-22 17:00:00 21.7 5 Norte 12 Norte 0 -- -- 72
2020-08-22 16:00:00 22.1 7 Norte 14 Norte 0 -- -- 70
2020-08-22 15:00:00 22 10 Norte 21 Norte 0 -- -- 70
2020-08-22 14:00:00 22.2 11 Nordeste 23 Norte 0 -- -- 69
2020-08-22 13:00:00 22.5 15 Norte 21 Norte 0 -- -- 65
2020-08-22 12:00:00 21.3 9 Norte 18 Nordeste 0 -- -- 68
2020-08-22 11:00:00 21.4 7 Oeste 12 Sur 0 -- -- 77
2020-08-22 10:00:00 19.3 3 Sudoeste 8 Sudoeste 0 -- -- 87
2020-08-22 09:00:00 18.1 7 Oeste 13 Oeste 0 -- -- 90
2020-08-22 08:00:00 17.4 8 Oeste 13 Sudoeste 0 -- -- 92
2020-08-22 07:00:00 17.8 7 Oeste 12 Sudoeste 0 -- -- 92
2020-08-22 06:00:00 18.5 6 Sudoeste 9 Sudoeste 0 -- -- 90
2020-08-22 05:00:00 19.1 4 Sudoeste 8 Sudoeste 0 -- -- 89
2020-08-22 04:00:00 19.2 4 Oeste 9 Oeste 0 -- -- 91
2020-08-22 03:00:00 19.4 5 Oeste 7 Sudoeste 0 -- -- 89
2020-08-22 02:00:00 19.6 5 Oeste 7 Oeste 0 -- -- 88
2020-08-22 01:00:00 19.9 3 Sudoeste 5 Oeste 0 -- -- 87
2020-08-22 00:00:00 20 3 Oeste 4 Oeste 0 -- -- 87
2020-08-21 23:00:00 20.2 0 Calma 5 Sudoeste 0 -- -- 86
2020-08-21 22:00:00 20.7 0 Calma 7 Nordeste 0 -- -- 84
2020-08-21 21:00:00 21.3 3 Noroeste 6 Noroeste 0 -- -- 78
2020-08-21 20:00:00 22.2 2 Nordeste 6 Este 0 -- -- 73
2020-08-21 19:00:00 22.9 3 Este 10 Nordeste 0 -- -- 72
2020-08-21 18:00:00 23.6 6 Este 12 Este 0 -- -- 70
2020-08-21 17:00:00 23.5 8 Norte 17 Norte 0 -- -- 70
2020-08-21 16:00:00 23.5 10 Nordeste 19 Norte 0 -- -- 74
2020-08-21 15:00:00 23.9 11 Nordeste 20 Norte 0 -- -- 70
2020-08-21 14:00:00 23.9 8 Nordeste -- -- -- -- -- 77
2020-08-21 13:00:00 -- -- -- -- -- -- -- -- --
2020-08-21 12:00:00 -- -- -- -- -- -- -- -- --
2020-08-21 11:00:00 -- -- -- -- -- -- -- -- --
2020-08-21 10:00:00 -- -- -- -- -- -- -- -- --
2020-08-21 09:00:00 -- -- -- -- -- -- -- -- --
2020-08-21 08:00:00 -- -- -- -- -- -- -- -- --
2020-08-21 07:00:00 -- -- -- -- -- -- -- -- --
2020-08-21 06:00:00 -- -- -- -- -- -- -- -- --
2020-08-21 05:00:00 -- -- -- -- -- -- -- -- --
2020-08-21 04:00:00 -- -- -- -- -- -- -- -- --
2020-08-21 03:00:00 -- -- -- -- -- -- -- -- --
2020-08-21 02:00:00 -- -- -- -- -- -- -- -- --
2020-08-21 01:00:00 -- -- -- -- -- -- -- -- --
2020-08-21 00:00:00 -- -- -- -- -- -- -- -- --